createdAt,value
2022-12-03T00:00:24.698Z,0.33
2022-12-03T00:02:55.394Z,0.37
2022-12-03T00:05:24.341Z,0.23
2022-12-03T00:07:53.130Z,0.22
2022-12-03T00:10:22.406Z,0.28
2022-12-03T00:12:51.241Z,0.38
2022-12-03T00:15:20.190Z,0.43
2022-12-03T00:17:49.352Z,0.48
2022-12-03T00:20:22.581Z,0.33
2022-12-03T00:22:52.441Z,0.45
2022-12-03T00:25:21.232Z,0.33
2022-12-03T00:27:50.792Z,0.32
2022-12-03T00:30:19.896Z,0.39
2022-12-03T00:32:48.947Z,0.29
2022-12-03T00:35:18.045Z,0.33
2022-12-03T00:37:48.706Z,0.35
2022-12-03T00:40:17.479Z,0.34
2022-12-03T00:42:46.540Z,0.38
2022-12-03T00:45:16.136Z,0.33
2022-12-03T00:47:46.055Z,0.29
2022-12-03T00:50:14.330Z,0.30
2022-12-03T00:52:43.184Z,0.37
2022-12-03T00:55:13.834Z,0.31
2022-12-03T00:57:42.668Z,0.09
2022-12-03T01:00:13.826Z,0.12
2022-12-03T01:02:43.826Z,0.26
2022-12-03T01:05:13.313Z,0.41
2022-12-03T01:07:42.916Z,0.37
2022-12-03T01:10:14.962Z,0.49
2022-12-03T01:12:45.621Z,0.44
2022-12-03T01:15:14.356Z,0.49
2022-12-03T01:17:42.773Z,0.42
2022-12-03T01:20:13.257Z,0.44
2022-12-03T01:22:42.158Z,0.26
2022-12-03T01:25:13.108Z,0.42
2022-12-03T01:27:42.204Z,0.41
2022-12-03T01:30:12.871Z,0.48
2022-12-03T01:32:40.680Z,0.53
2022-12-03T01:35:10.107Z,0.53
2022-12-03T01:37:38.597Z,0.50
2022-12-03T01:40:10.084Z,0.54
2022-12-03T01:42:43.827Z,0.39
2022-12-03T01:45:22.756Z,0.27
2022-12-03T01:47:51.717Z,0.40
2022-12-03T01:50:25.888Z,0.52
2022-12-03T01:53:04.157Z,0.56
2022-12-03T01:55:32.767Z,0.43
2022-12-03T01:58:04.406Z,0.35
2022-12-03T02:00:34.125Z,0.30
2022-12-03T02:03:06.893Z,0.33
2022-12-03T02:05:35.792Z,0.36
2022-12-03T02:08:24.372Z,0.49
2022-12-03T02:10:53.145Z,0.47
2022-12-03T02:13:24.399Z,0.43
2022-12-03T02:15:55.235Z,0.41
2022-12-03T02:18:24.541Z,0.39
2022-12-03T02:21:04.940Z,0.29
2022-12-03T02:23:43.509Z,0.31
2022-12-03T02:26:15.111Z,0.36
2022-12-03T02:28:45.198Z,0.34
2022-12-03T02:31:14.621Z,0.36
2022-12-03T02:33:44.016Z,0.33
2022-12-03T02:36:14.567Z,0.40
2022-12-03T02:38:46.791Z,0.44
2022-12-03T02:41:34.625Z,0.38
2022-12-03T02:44:04.186Z,0.35
2022-12-03T02:46:34.187Z,0.37
2022-12-03T02:49:04.725Z,0.36
2022-12-03T02:51:34.389Z,0.22
2022-12-03T02:54:04.140Z,0.28
2022-12-03T02:56:35.295Z,0.26
2022-12-03T02:59:07.291Z,0.25
2022-12-03T03:01:36.762Z,0.27
2022-12-03T03:04:06.706Z,0.39
2022-12-03T03:06:38.742Z,0.34
2022-12-03T03:09:09.299Z,0.43
2022-12-03T03:11:39.998Z,0.40
2022-12-03T03:14:09.017Z,0.44
2022-12-03T03:16:38.871Z,0.31
2022-12-03T03:19:07.894Z,0.43
2022-12-03T03:21:40.304Z,0.51
2022-12-03T03:24:10.158Z,0.50
2022-12-03T03:26:40.049Z,0.53
2022-12-03T03:29:09.245Z,0.46
2022-12-03T03:31:39.200Z,0.26
2022-12-03T03:34:07.816Z,0.32
2022-12-03T03:36:36.950Z,0.40
2022-12-03T03:39:08.379Z,0.36
2022-12-03T03:41:38.372Z,0.42
2022-12-03T03:44:09.959Z,0.41
2022-12-03T03:46:40.540Z,0.45
2022-12-03T03:49:10.109Z,0.42
2022-12-03T03:51:40.641Z,0.35
2022-12-03T03:54:09.706Z,0.35
2022-12-03T03:56:38.821Z,0.35
2022-12-03T03:59:09.416Z,0.41
2022-12-03T04:01:38.596Z,0.32
2022-12-03T04:04:16.032Z,0.29
2022-12-03T04:06:45.090Z,0.31
2022-12-03T04:09:14.004Z,0.30
2022-12-03T04:12:00.082Z,0.28
2022-12-03T04:14:31.074Z,0.27
2022-12-03T04:17:00.682Z,0.20
2022-12-03T04:19:30.716Z,0.31
2022-12-03T04:22:16.878Z,0.40
2022-12-03T04:24:45.404Z,0.38
2022-12-03T04:27:46.107Z,0.13
2022-12-03T04:30:17.307Z,0.29
2022-12-03T04:33:03.263Z,0.27
2022-12-03T04:35:44.053Z,0.37
2022-12-03T04:38:13.145Z,0.37
2022-12-03T04:41:01.796Z,0.41
2022-12-03T04:43:31.770Z,0.38
2022-12-03T04:46:03.410Z,0.24
2022-12-03T04:48:32.174Z,0.30
2022-12-03T04:51:01.166Z,0.38
2022-12-03T04:53:29.858Z,0.38
2022-12-03T04:55:59.261Z,0.31
2022-12-03T04:58:27.886Z,0.34
2022-12-03T05:00:56.657Z,0.34
2022-12-03T05:03:27.190Z,0.27
2022-12-03T05:05:55.737Z,0.26
2022-12-03T05:08:25.534Z,0.23
2022-12-03T05:10:54.302Z,0.18
2022-12-03T05:13:23.028Z,0.25
2022-12-03T05:15:52.738Z,0.34
2022-12-03T05:18:21.744Z,0.21
2022-12-03T05:20:53.566Z,0.21
2022-12-03T05:23:23.016Z,0.20
2022-12-03T05:25:51.643Z,0.15
2022-12-03T05:28:22.279Z,0.07
2022-12-03T05:30:51.754Z,0.19
2022-12-03T05:33:21.023Z,0.16
2022-12-03T05:35:51.486Z,0.20
2022-12-03T05:38:20.114Z,0.20
2022-12-03T05:40:48.695Z,0.22
2022-12-03T05:43:16.155Z,0.25
2022-12-03T05:45:46.083Z,0.25
2022-12-03T05:48:16.719Z,0.11
2022-12-03T05:50:47.165Z,0.23
2022-12-03T05:53:19.433Z,0.33
2022-12-03T05:55:47.975Z,0.29
2022-12-03T05:58:16.805Z,0.17
2022-12-03T06:00:46.884Z,0.19
2022-12-03T06:03:15.790Z,0.27
2022-12-03T06:05:45.633Z,0.33
2022-12-03T06:08:14.788Z,0.29
2022-12-03T06:10:45.113Z,0.32
2022-12-03T06:13:13.610Z,0.35
2022-12-03T06:15:44.169Z,0.32
2022-12-03T06:18:13.244Z,0.34
2022-12-03T06:20:41.633Z,0.34
2022-12-03T06:23:10.484Z,0.38
2022-12-03T06:25:39.008Z,0.38
2022-12-03T06:28:09.371Z,0.42
2022-12-03T06:30:38.736Z,0.39
2022-12-03T06:33:07.222Z,0.52
2022-12-03T06:35:35.953Z,0.51
2022-12-03T06:38:04.670Z,0.46
2022-12-03T06:40:34.222Z,0.37
2022-12-03T06:43:02.901Z,0.43
2022-12-03T06:45:33.065Z,0.42
2022-12-03T06:48:01.654Z,0.49
2022-12-03T06:50:30.406Z,0.44
2022-12-03T06:52:59.322Z,0.34
2022-12-03T06:55:27.902Z,0.52
2022-12-03T06:57:57.042Z,0.42
2022-12-03T07:00:26.104Z,0.39
2022-12-03T07:02:56.487Z,0.33
2022-12-03T07:05:25.730Z,0.31
2022-12-03T07:07:55.671Z,0.14
2022-12-03T07:10:24.907Z,0.25
2022-12-03T07:12:53.538Z,0.11
2022-12-03T07:15:22.133Z,-0.03
2022-12-03T07:17:52.059Z,0.12
2022-12-03T07:20:22.988Z,0.23
2022-12-03T07:22:51.984Z,0.18
2022-12-03T07:25:23.349Z,0.12
2022-12-03T07:27:53.262Z,0.16
2022-12-03T07:30:23.890Z,0.11
2022-12-03T07:32:52.762Z,0.23
2022-12-03T07:35:23.182Z,0.19
2022-12-03T07:37:52.526Z,0.19
2022-12-03T07:40:21.193Z,0.30
2022-12-03T07:42:50.150Z,0.11
2022-12-03T07:45:19.827Z,0.19
2022-12-03T07:47:48.756Z,0.20
2022-12-03T07:50:18.368Z,0.34
2022-12-03T07:52:48.774Z,0.17
2022-12-03T07:55:17.466Z,0.27
2022-12-03T07:57:46.883Z,0.28
2022-12-03T08:00:17.201Z,0.19
2022-12-03T08:02:45.773Z,0.18
2022-12-03T08:05:15.016Z,0.17
2022-12-03T08:07:43.473Z,0.25
2022-12-03T08:10:14.501Z,0.28
2022-12-03T08:12:45.666Z,0.37
2022-12-03T08:15:16.657Z,0.40
2022-12-03T08:17:46.978Z,0.33
2022-12-03T08:20:18.662Z,0.38
2022-12-03T08:22:49.209Z,0.46
2022-12-03T08:25:23.730Z,0.43
2022-12-03T08:27:54.983Z,0.38
2022-12-03T08:30:23.855Z,0.40
2022-12-03T08:32:53.627Z,0.35
2022-12-03T08:35:25.876Z,0.43
2022-12-03T08:38:00.878Z,0.46
2022-12-03T08:40:38.356Z,0.40
2022-12-03T08:43:24.865Z,0.37
2022-12-03T08:45:54.731Z,0.31
2022-12-03T08:48:33.862Z,0.28
2022-12-03T08:51:06.823Z,0.27
2022-12-03T08:53:37.596Z,0.37
2022-12-03T08:56:17.025Z,0.42
2022-12-03T08:58:48.271Z,0.37
2022-12-03T09:01:40.438Z,0.29
2022-12-03T09:04:37.783Z,0.27
2022-12-03T09:07:06.743Z,0.41
2022-12-03T09:09:35.481Z,0.43
2022-12-03T09:12:06.274Z,0.47
2022-12-03T09:14:34.844Z,0.38
2022-12-03T09:17:04.011Z,0.40
2022-12-03T09:19:33.823Z,0.44
2022-12-03T09:22:02.724Z,0.40
2022-12-03T09:24:31.770Z,0.52
2022-12-03T09:27:01.330Z,0.54
2022-12-03T09:29:32.093Z,0.56
2022-12-03T09:32:02.051Z,0.53
2022-12-03T09:34:30.668Z,0.59
2022-12-03T09:36:59.313Z,0.63
2022-12-03T09:39:29.802Z,0.50
2022-12-03T09:41:59.515Z,0.60
2022-12-03T09:44:34.955Z,0.68
2022-12-03T09:47:06.411Z,0.66
2022-12-03T09:49:41.419Z,0.62
2022-12-03T09:52:14.302Z,0.63
2022-12-03T09:54:47.309Z,0.45
2022-12-03T09:57:18.493Z,0.66
2022-12-03T09:59:48.821Z,0.67
2022-12-03T10:02:22.998Z,0.66
2022-12-03T10:04:54.396Z,0.70
2022-12-03T10:07:24.000Z,0.65
2022-12-03T10:09:53.119Z,0.68
2022-12-03T10:12:25.997Z,0.79
2022-12-03T10:14:57.215Z,0.80
2022-12-03T10:17:25.929Z,0.82
2022-12-03T10:19:54.512Z,0.77
2022-12-03T10:22:24.319Z,0.79
2022-12-03T10:25:09.576Z,0.74
2022-12-03T10:27:38.845Z,0.73
2022-12-03T10:30:18.164Z,0.82
2022-12-03T10:32:50.096Z,0.78
2022-12-03T10:35:21.673Z,0.87
2022-12-03T10:38:10.015Z,0.90
2022-12-03T10:40:43.158Z,0.98
2022-12-03T10:43:16.545Z,0.93
2022-12-03T10:45:47.552Z,0.73
2022-12-03T10:48:18.180Z,0.97
2022-12-03T10:50:52.259Z,0.90
2022-12-03T10:53:23.482Z,0.86
2022-12-03T10:55:59.028Z,0.86
2022-12-03T10:58:30.974Z,0.90
2022-12-03T11:01:04.772Z,0.92
2022-12-03T11:03:37.681Z,0.87
2022-12-03T11:06:07.112Z,1.13
2022-12-03T11:08:40.510Z,1.08
2022-12-03T11:11:18.431Z,1.08
2022-12-03T11:13:53.441Z,1.02
2022-12-03T11:17:08.066Z,1.15
2022-12-03T11:19:52.405Z,1.08
2022-12-03T11:22:28.290Z,1.17
2022-12-03T11:25:33.969Z,1.19
2022-12-03T11:28:39.106Z,1.29
2022-12-03T11:31:15.480Z,1.21
2022-12-03T11:33:44.726Z,1.25
2022-12-03T11:36:36.462Z,1.28
2022-12-03T11:39:10.330Z,1.21
2022-12-03T11:41:39.194Z,1.17
2022-12-03T11:44:34.898Z,1.22
2022-12-03T11:47:15.919Z,1.18
2022-12-03T11:49:49.977Z,1.28
2022-12-03T11:52:31.717Z,1.23
2022-12-03T11:55:05.284Z,1.25
2022-12-03T11:57:39.485Z,1.31
2022-12-03T12:00:17.537Z,1.25
2022-12-03T12:02:47.468Z,1.22
2022-12-03T12:05:29.052Z,1.26
2022-12-03T12:08:01.201Z,1.05
2022-12-03T12:10:46.488Z,0.93
2022-12-03T12:13:53.750Z,0.92
2022-12-03T12:16:46.247Z,0.99
2022-12-03T12:19:35.095Z,0.97
2022-12-03T12:22:31.851Z,0.90
2022-12-03T12:25:06.228Z,0.75
2022-12-03T12:27:40.003Z,0.83
2022-12-03T12:30:12.976Z,0.86
2022-12-03T12:32:47.919Z,0.82
2022-12-03T12:35:20.348Z,0.89
2022-12-03T12:37:59.664Z,0.90
2022-12-03T12:40:33.390Z,0.80
2022-12-03T12:43:11.790Z,0.83
2022-12-03T12:45:43.091Z,0.77
2022-12-03T12:48:18.645Z,0.76
2022-12-03T12:50:49.889Z,0.84
2022-12-03T12:53:24.579Z,0.76
2022-12-03T12:55:58.317Z,0.80
2022-12-03T12:58:28.345Z,0.76
2022-12-03T13:01:00.686Z,0.74
2022-12-03T13:03:33.261Z,0.83
2022-12-03T13:06:03.892Z,0.75
2022-12-03T13:08:35.030Z,0.70
2022-12-03T13:11:06.684Z,0.81
2022-12-03T13:13:44.234Z,0.73
2022-12-03T13:16:18.358Z,0.72
2022-12-03T13:18:49.228Z,0.73
2022-12-03T13:21:24.254Z,0.52
2022-12-03T13:23:56.121Z,0.59
2022-12-03T13:26:38.589Z,0.57
2022-12-03T13:29:14.001Z,0.62
2022-12-03T13:31:44.654Z,0.73
2022-12-03T13:34:20.677Z,0.62
2022-12-03T13:36:57.046Z,0.67
2022-12-03T13:39:32.684Z,0.61
2022-12-03T13:42:38.317Z,0.58
2022-12-03T13:45:32.686Z,0.60
2022-12-03T13:48:04.050Z,0.64
2022-12-03T13:50:36.637Z,0.69
2022-12-03T13:53:18.235Z,0.69
2022-12-03T13:55:49.399Z,0.57
2022-12-03T13:58:20.457Z,0.68
2022-12-03T14:00:50.552Z,0.68
2022-12-03T14:03:19.736Z,0.56
2022-12-03T14:05:49.045Z,0.61
2022-12-03T14:08:18.670Z,0.64
2022-12-03T14:10:47.838Z,0.54
2022-12-03T14:13:16.972Z,0.48
2022-12-03T14:15:57.167Z,0.61
2022-12-03T14:18:26.230Z,0.57
2022-12-03T14:20:56.969Z,0.52
2022-12-03T14:23:26.332Z,0.64
2022-12-03T14:25:55.296Z,0.57
2022-12-03T14:28:24.751Z,0.54
2022-12-03T14:30:55.020Z,0.47
2022-12-03T14:33:23.908Z,0.55
2022-12-03T14:35:55.324Z,0.60
2022-12-03T14:38:25.235Z,0.50
2022-12-03T14:40:54.392Z,0.31
2022-12-03T14:43:23.551Z,0.35
2022-12-03T14:45:54.921Z,0.28
2022-12-03T14:48:23.697Z,0.28
2022-12-03T14:50:53.060Z,0.35
2022-12-03T14:53:27.034Z,0.35
2022-12-03T14:55:59.379Z,0.32
2022-12-03T14:58:28.682Z,0.25
2022-12-03T15:00:59.744Z,0.28
2022-12-03T15:03:29.741Z,0.25
2022-12-03T15:06:00.911Z,0.25
2022-12-03T15:08:30.410Z,0.27
2022-12-03T15:10:59.598Z,0.18
2022-12-03T15:13:28.853Z,0.16
2022-12-03T15:15:58.976Z,0.18
2022-12-03T15:18:28.358Z,0.15
2022-12-03T15:20:57.712Z,0.10
2022-12-03T15:23:26.510Z,0.12
2022-12-03T15:25:57.029Z,0.12
2022-12-03T15:28:26.358Z,0.08
2022-12-03T15:30:55.634Z,0.03
2022-12-03T15:33:26.982Z,0.04
2022-12-03T15:35:57.059Z,0.01
2022-12-03T15:38:27.686Z,0.02
2022-12-03T15:40:59.088Z,0.03
2022-12-03T15:43:29.333Z,-0.01
2022-12-03T15:45:58.072Z,-0.05
2022-12-03T15:48:28.973Z,0.06
2022-12-03T15:50:59.427Z,0.05
2022-12-03T15:53:28.750Z,-0.01
2022-12-03T15:55:57.612Z,0.03
2022-12-03T15:58:26.591Z,-0.03
2022-12-03T16:00:56.223Z,0.01
2022-12-03T16:03:25.288Z,0.02
2022-12-03T16:05:56.453Z,0.03
2022-12-03T16:08:26.333Z,0.04
2022-12-03T16:10:55.737Z,0.09
2022-12-03T16:13:24.790Z,0.07
2022-12-03T16:15:54.441Z,0.08
2022-12-03T16:18:23.639Z,0.09
2022-12-03T16:20:53.238Z,0.05
2022-12-03T16:23:23.659Z,0.09
2022-12-03T16:25:53.477Z,0.15
2022-12-03T16:28:22.790Z,0.18
2022-12-03T16:30:51.668Z,0.02
2022-12-03T16:33:27.095Z,0.11
2022-12-03T16:35:56.820Z,0.06
2022-12-03T16:38:27.885Z,0.17
2022-12-03T16:40:56.990Z,0.09
2022-12-03T16:43:26.456Z,0.15
2022-12-03T16:46:21.314Z,0.10
2022-12-03T16:48:49.966Z,0.06
2022-12-03T16:51:19.684Z,0.01
2022-12-03T16:53:50.219Z,0.09
2022-12-03T16:56:19.392Z,0.06
2022-12-03T16:58:50.371Z,0.13
2022-12-03T17:01:20.009Z,0.11
2022-12-03T17:03:56.814Z,0.09
2022-12-03T17:06:27.116Z,0.14
2022-12-03T17:08:58.925Z,0.09
2022-12-03T17:11:29.803Z,0.10
2022-12-03T17:13:58.869Z,0.17
2022-12-03T17:16:28.042Z,0.05
2022-12-03T17:18:57.036Z,0.06
2022-12-03T17:21:25.739Z,0.02
2022-12-03T17:23:55.770Z,0.26
2022-12-03T17:26:26.531Z,0.21
2022-12-03T17:28:57.731Z,0.17
2022-12-03T17:31:27.581Z,0.06
2022-12-03T17:33:58.198Z,0.17
2022-12-03T17:36:27.178Z,-0.05
2022-12-03T17:38:56.101Z,0.15
2022-12-03T17:41:28.369Z,0.18
2022-12-03T17:43:57.093Z,0.11
2022-12-03T17:46:25.960Z,0.19
2022-12-03T17:48:56.364Z,0.09
2022-12-03T17:51:25.237Z,0.08
2022-12-03T17:53:55.325Z,0.13
2022-12-03T17:56:26.255Z,0.16
2022-12-03T17:58:57.792Z,0.13
2022-12-03T18:01:28.785Z,0.07
2022-12-03T18:03:58.583Z,0.17
2022-12-03T18:06:28.272Z,0.15
2022-12-03T18:08:58.188Z,0.13
2022-12-03T18:11:30.558Z,0.14
2022-12-03T18:14:02.285Z,0.26
2022-12-03T18:16:32.496Z,0.26
2022-12-03T18:19:06.457Z,0.42
2022-12-03T18:21:36.368Z,0.39
2022-12-03T18:24:05.540Z,0.45
2022-12-03T18:26:36.988Z,0.37
2022-12-03T18:29:06.495Z,0.49
2022-12-03T18:31:35.599Z,0.39
2022-12-03T18:34:04.639Z,0.28
2022-12-03T18:36:37.030Z,0.30
2022-12-03T18:39:09.602Z,0.30
2022-12-03T18:41:41.924Z,0.37
2022-12-03T18:44:13.168Z,0.34
2022-12-03T18:46:53.398Z,0.32
2022-12-03T18:49:24.412Z,0.40
2022-12-03T18:51:58.908Z,0.38
2022-12-03T18:54:28.338Z,0.58
2022-12-03T18:56:59.282Z,0.53
2022-12-03T18:59:28.478Z,0.57
2022-12-03T19:01:57.283Z,0.50
2022-12-03T19:04:26.542Z,0.52
2022-12-03T19:06:55.857Z,0.54
2022-12-03T19:09:24.848Z,0.39
2022-12-03T19:11:53.996Z,0.51
2022-12-03T19:14:24.825Z,0.51
2022-12-03T19:16:53.778Z,0.49
2022-12-03T19:19:25.183Z,0.45
2022-12-03T19:21:55.111Z,0.26
2022-12-03T19:24:25.558Z,0.38
2022-12-03T19:26:55.845Z,0.52
2022-12-03T19:29:26.787Z,0.50
2022-12-03T19:31:56.241Z,0.45
2022-12-03T19:34:25.300Z,0.38
2022-12-03T19:36:54.282Z,0.32
2022-12-03T19:39:22.997Z,0.42
2022-12-03T19:41:53.312Z,0.43
2022-12-03T19:44:22.498Z,0.42
2022-12-03T19:46:55.307Z,0.38
2022-12-03T19:49:26.017Z,0.39
2022-12-03T19:51:56.086Z,0.47
2022-12-03T19:54:28.761Z,0.35
2022-12-03T19:56:59.335Z,0.50
2022-12-03T19:59:29.720Z,0.46
2022-12-03T20:02:05.011Z,0.36
2022-12-03T20:04:36.764Z,0.49
2022-12-03T20:07:09.566Z,0.53
2022-12-03T20:09:39.379Z,0.44
2022-12-03T20:12:08.731Z,0.46
2022-12-03T20:14:38.007Z,0.45
2022-12-03T20:17:08.030Z,0.23
2022-12-03T20:19:38.547Z,0.32
2022-12-03T20:22:08.491Z,0.46
2022-12-03T20:24:37.809Z,0.42
2022-12-03T20:27:06.603Z,0.60
2022-12-03T20:29:47.874Z,0.55
2022-12-03T20:32:20.967Z,0.54
2022-12-03T20:34:50.846Z,0.50
2022-12-03T20:37:21.340Z,0.50
2022-12-03T20:39:52.051Z,0.51
2022-12-03T20:42:21.242Z,0.61
2022-12-03T20:44:54.729Z,0.60
2022-12-03T20:47:29.080Z,0.66
2022-12-03T20:49:58.623Z,0.63
2022-12-03T20:52:30.457Z,0.64
2022-12-03T20:54:59.688Z,0.72
2022-12-03T20:57:30.902Z,0.70
2022-12-03T21:00:01.449Z,0.65
2022-12-03T21:02:34.480Z,0.64
2022-12-03T21:05:03.414Z,0.58
2022-12-03T21:07:33.236Z,0.77
2022-12-03T21:10:04.177Z,0.70
2022-12-03T21:12:36.718Z,0.72
2022-12-03T21:15:06.834Z,0.56
2022-12-03T21:17:38.534Z,0.69
2022-12-03T21:20:08.615Z,0.79
2022-12-03T21:22:38.952Z,0.56
2022-12-03T21:25:08.716Z,0.68
2022-12-03T21:27:38.204Z,0.66
2022-12-03T21:30:08.712Z,0.63
2022-12-03T21:32:39.194Z,0.68
2022-12-03T21:35:09.156Z,0.63
2022-12-03T21:37:38.046Z,0.69
2022-12-03T21:40:08.695Z,0.66
2022-12-03T21:42:39.151Z,0.47
2022-12-03T21:45:10.365Z,0.55
2022-12-03T21:47:41.300Z,0.53
2022-12-03T21:50:12.961Z,0.66
2022-12-03T21:52:41.972Z,0.59
2022-12-03T21:55:11.697Z,0.59
2022-12-03T21:57:40.794Z,0.52
2022-12-03T22:00:11.318Z,0.62
2022-12-03T22:02:42.883Z,0.67
2022-12-03T22:05:13.796Z,0.61
2022-12-03T22:07:44.137Z,0.58
2022-12-03T22:10:15.308Z,0.59
2022-12-03T22:12:45.094Z,0.57
2022-12-03T22:15:19.130Z,0.51
2022-12-03T22:17:53.221Z,0.46
2022-12-03T22:20:22.042Z,0.53
2022-12-03T22:22:52.055Z,0.58
2022-12-03T22:25:22.221Z,0.59
2022-12-03T22:27:52.746Z,0.61
2022-12-03T22:30:28.672Z,0.58
2022-12-03T22:32:59.393Z,0.57
2022-12-03T22:35:31.108Z,0.64
2022-12-03T22:38:00.447Z,0.65
2022-12-03T22:40:29.360Z,0.68
2022-12-03T22:42:58.470Z,0.61
2022-12-03T22:45:27.598Z,0.67
2022-12-03T22:47:59.125Z,0.56
2022-12-03T22:50:28.013Z,0.63
2022-12-03T22:52:56.699Z,0.58
2022-12-03T22:55:26.264Z,0.70
2022-12-03T22:57:56.540Z,0.75
2022-12-03T23:00:33.964Z,0.62
2022-12-03T23:03:05.586Z,0.90
2022-12-03T23:05:37.413Z,0.61
2022-12-03T23:08:07.082Z,0.63
2022-12-03T23:10:37.625Z,0.66
2022-12-03T23:13:07.575Z,0.75
2022-12-03T23:15:36.472Z,0.60
2022-12-03T23:18:07.443Z,0.71
2022-12-03T23:20:36.709Z,0.66
2022-12-03T23:23:06.432Z,0.86
2022-12-03T23:25:35.766Z,0.81
2022-12-03T23:28:04.969Z,0.90
2022-12-03T23:30:38.887Z,0.87
2022-12-03T23:33:10.285Z,0.93
2022-12-03T23:35:42.054Z,0.85
2022-12-03T23:38:11.338Z,0.87
2022-12-03T23:40:46.381Z,0.81
2022-12-03T23:43:17.278Z,0.56
2022-12-03T23:45:47.862Z,0.67
2022-12-03T23:48:18.960Z,0.70
2022-12-03T23:50:47.582Z,0.74
2022-12-03T23:53:17.407Z,0.62
2022-12-03T23:55:47.331Z,0.81
2022-12-03T23:58:16.445Z,0.88
